sensor_id;sensor_type;location;lat;lon;timestamp;pressure;altitude;pressure_sealevel;temperature;humidity
74881;BME280;63427;49.654;6.596;2024-02-21T00:06:21;100674.11;;;11.09;39.64
74881;BME280;63427;49.654;6.596;2024-02-21T00:08:46;100673.17;;;11.55;39.84
74881;BME280;63427;49.654;6.596;2024-02-21T00:16:03;100662.59;;;11.19;39.92
74881;BME280;63427;49.654;6.596;2024-02-21T00:18:28;100653.59;;;11.21;39.36
74881;BME280;63427;49.654;6.596;2024-02-21T00:20:53;100650.28;;;11.26;39.60
74881;BME280;63427;49.654;6.596;2024-02-21T00:25:45;100646.61;;;10.84;40.04
74881;BME280;63427;49.654;6.596;2024-02-21T00:28:11;100643.01;;;11.10;39.49
74881;BME280;63427;49.654;6.596;2024-02-21T00:33:01;100644.17;;;10.98;39.78
74881;BME280;63427;49.654;6.596;2024-02-21T00:35:27;100639.17;;;11.04;39.56
74881;BME280;63427;49.654;6.596;2024-02-21T00:37:52;100632.18;;;10.84;39.84
74881;BME280;63427;49.654;6.596;2024-02-21T00:40:17;100628.72;;;11.33;39.57
74881;BME280;63427;49.654;6.596;2024-02-21T00:47:34;100613.42;;;10.42;40.59
74881;BME280;63427;49.654;6.596;2024-02-21T00:49:59;100620.30;;;10.85;39.74
74881;BME280;63427;49.654;6.596;2024-02-21T00:54:50;100635.26;;;10.94;39.73
74881;BME280;63427;49.654;6.596;2024-02-21T00:57:16;100636.75;;;11.02;39.54
74881;BME280;63427;49.654;6.596;2024-02-21T01:04:32;100605.76;;;11.16;39.52
74881;BME280;63427;49.654;6.596;2024-02-21T01:33:37;100588.46;;;10.55;40.49
74881;BME280;63427;49.654;6.596;2024-02-21T01:36:04;100585.39;;;11.18;40.23
74881;BME280;63427;49.654;6.596;2024-02-21T01:38:34;100594.31;;;10.62;40.02
74881;BME280;63427;49.654;6.596;2024-02-21T01:40:54;100600.34;;;11.24;40.01
74881;BME280;63427;49.654;6.596;2024-02-21T01:43:20;100595.01;;;10.74;40.57
74881;BME280;63427;49.654;6.596;2024-02-21T01:45:48;100593.74;;;10.46;41.03
74881;BME280;63427;49.654;6.596;2024-02-21T01:48:10;100592.44;;;10.77;41.42
74881;BME280;63427;49.654;6.596;2024-02-21T01:50:35;100592.11;;;10.39;41.33
74881;BME280;63427;49.654;6.596;2024-02-21T01:53:01;100585.05;;;10.35;41.79
74881;BME280;63427;49.654;6.596;2024-02-21T01:55:26;100576.32;;;10.54;41.61
74881;BME280;63427;49.654;6.596;2024-02-21T01:57:52;100572.19;;;10.63;41.75
74881;BME280;63427;49.654;6.596;2024-02-21T02:00:17;100563.54;;;10.12;42.18
74881;BME280;63427;49.654;6.596;2024-02-21T02:41:31;100482.59;;;10.09;41.06
74881;BME280;63427;49.654;6.596;2024-02-21T02:43:56;100477.70;;;10.27;40.60
74881;BME280;63427;49.654;6.596;2024-02-21T02:46:22;100480.27;;;10.58;39.93
74881;BME280;63427;49.654;6.596;2024-02-21T02:48:47;100481.16;;;10.68;39.43
74881;BME280;63427;49.654;6.596;2024-02-21T02:51:15;100491.77;;;10.83;39.73
74881;BME280;63427;49.654;6.596;2024-02-21T02:53:38;100496.32;;;10.57;40.15
74881;BME280;63427;49.654;6.596;2024-02-21T02:56:04;100487.21;;;10.11;40.50
74881;BME280;63427;49.654;6.596;2024-02-21T02:58:28;100482.56;;;10.40;40.45
74881;BME280;63427;49.654;6.596;2024-02-21T03:00:54;100475.95;;;10.52;40.49
74881;BME280;63427;49.654;6.596;2024-02-21T03:03:20;100467.95;;;10.54;40.60
74881;BME280;63427;49.654;6.596;2024-02-21T03:05:45;100463.80;;;10.10;40.95
74881;BME280;63427;49.654;6.596;2024-02-21T03:10:36;100462.91;;;10.23;40.84
74881;BME280;63427;49.654;6.596;2024-02-21T03:13:03;100455.21;;;10.37;40.54
74881;BME280;63427;49.654;6.596;2024-02-21T03:15:27;100449.56;;;10.29;40.28
74881;BME280;63427;49.654;6.596;2024-02-21T03:17:52;100448.61;;;10.25;39.86
74881;BME280;63427;49.654;6.596;2024-02-21T03:25:09;100450.68;;;10.37;40.24
74881;BME280;63427;49.654;6.596;2024-02-21T03:29:59;100461.60;;;10.82;39.66
74881;BME280;63427;49.654;6.596;2024-02-21T03:32:24;100449.21;;;10.92;39.26
74881;BME280;63427;49.654;6.596;2024-02-21T03:34:50;100441.66;;;10.66;39.39
74881;BME280;63427;49.654;6.596;2024-02-21T03:37:14;100427.85;;;10.67;39.02
74881;BME280;63427;49.654;6.596;2024-02-21T03:39:40;100403.30;;;10.63;39.06
74881;BME280;63427;49.654;6.596;2024-02-21T03:42:06;100399.52;;;10.75;39.18
74881;BME280;63427;49.654;6.596;2024-02-21T03:44:37;100401.63;;;10.42;39.14
74881;BME280;63427;49.654;6.596;2024-02-21T03:46:56;100397.49;;;10.42;38.88
74881;BME280;63427;49.654;6.596;2024-02-21T05:55:28;100307.69;;;10.96;39.03
74881;BME280;63427;49.654;6.596;2024-02-21T05:57:54;100307.38;;;10.46;39.51
74881;BME280;63427;49.654;6.596;2024-02-21T06:00:20;100304.44;;;10.65;39.46
74881;BME280;63427;49.654;6.596;2024-02-21T06:02:45;100297.43;;;10.70;39.41
74881;BME280;63427;49.654;6.596;2024-02-21T06:05:10;100294.68;;;10.18;39.95
74881;BME280;63427;49.654;6.596;2024-02-21T06:07:36;100294.31;;;10.14;40.68
74881;BME280;63427;49.654;6.596;2024-02-21T06:10:02;100289.22;;;10.59;40.06
74881;BME280;63427;49.654;6.596;2024-02-21T06:12:27;100283.08;;;10.45;40.18
74881;BME280;63427;49.654;6.596;2024-02-21T06:14:52;100291.77;;;9.78;41.14
74881;BME280;63427;49.654;6.596;2024-02-21T06:17:18;100292.25;;;9.85;41.01
74881;BME280;63427;49.654;6.596;2024-02-21T06:19:49;100287.86;;;10.24;40.66
74881;BME280;63427;49.654;6.596;2024-02-21T06:22:16;100286.84;;;10.09;40.37
74881;BME280;63427;49.654;6.596;2024-02-21T06:29:25;100276.14;;;10.18;40.59
74881;BME280;63427;49.654;6.596;2024-02-21T06:31:51;100276.62;;;9.71;40.76
74881;BME280;63427;49.654;6.596;2024-02-21T06:34:17;100280.63;;;9.71;41.14
74881;BME280;63427;49.654;6.596;2024-02-21T06:39:07;100262.93;;;10.49;40.06
74881;BME280;63427;49.654;6.596;2024-02-21T06:56:07;100264.49;;;10.60;38.98
74881;BME280;63427;49.654;6.596;2024-02-21T06:58:33;100268.44;;;10.73;39.31
74881;BME280;63427;49.654;6.596;2024-02-21T07:00:57;100264.09;;;10.52;39.28
74881;BME280;63427;49.654;6.596;2024-02-21T07:03:23;100255.65;;;10.40;39.48
74881;BME280;63427;49.654;6.596;2024-02-21T07:05:52;100254.01;;;10.12;39.63
74881;BME280;63427;49.654;6.596;2024-02-21T07:10:40;100262.82;;;10.32;39.70
74881;BME280;63427;49.654;6.596;2024-02-21T07:15:31;100258.45;;;10.09;40.02
74881;BME280;63427;49.654;6.596;2024-02-21T07:17:57;100252.37;;;10.23;40.06
74881;BME280;63427;49.654;6.596;2024-02-21T07:20:22;100254.09;;;10.10;40.17
74881;BME280;63427;49.654;6.596;2024-02-21T07:22:53;100250.56;;;10.30;40.16
74881;BME280;63427;49.654;6.596;2024-02-21T07:25:18;100250.76;;;10.28;40.03
74881;BME280;63427;49.654;6.596;2024-02-21T07:27:39;100248.99;;;10.46;39.60
74881;BME280;63427;49.654;6.596;2024-02-21T07:30:10;100249.16;;;9.57;41.04
74881;BME280;63427;49.654;6.596;2024-02-21T07:32:30;100246.68;;;10.02;40.79
74881;BME280;63427;49.654;6.596;2024-02-21T07:34:56;100248.80;;;9.86;41.47
74881;BME280;63427;49.654;6.596;2024-02-21T07:37:21;100244.58;;;10.24;40.85
74881;BME280;63427;49.654;6.596;2024-02-21T07:39:47;100240.55;;;10.26;40.45
74881;BME280;63427;49.654;6.596;2024-02-21T07:44:42;100248.49;;;9.72;40.48
74881;BME280;63427;49.654;6.596;2024-02-21T07:47:04;100243.38;;;9.69;40.22
74881;BME280;63427;49.654;6.596;2024-02-21T07:49:30;100246.18;;;10.33;39.71
74881;BME280;63427;49.654;6.596;2024-02-21T07:51:55;100251.69;;;10.64;39.27
74881;BME280;63427;49.654;6.596;2024-02-21T07:54:21;100254.94;;;10.62;39.24
74881;BME280;63427;49.654;6.596;2024-02-21T07:56:51;100253.04;;;10.35;39.25
74881;BME280;63427;49.654;6.596;2024-02-21T08:30:42;100202.92;;;11.32;37.71
74881;BME280;63427;49.654;6.596;2024-02-21T08:33:08;100203.80;;;11.04;38.01
74881;BME280;63427;49.654;6.596;2024-02-21T08:35:33;100204.40;;;11.97;37.26
74881;BME280;63427;49.654;6.596;2024-02-21T12:04:01;99857.72;;;13.37;35.54
74881;BME280;63427;49.654;6.596;2024-02-21T12:08:51;99834.32;;;13.53;35.37
74881;BME280;63427;49.654;6.596;2024-02-21T12:11:19;99825.54;;;13.71;34.09
74881;BME280;63427;49.654;6.596;2024-02-21T12:13:42;99814.06;;;13.23;35.06
74881;BME280;63427;49.654;6.596;2024-02-21T12:16:08;99824.87;;;13.44;34.47
74881;BME280;63427;49.654;6.596;2024-02-21T15:34:49;99384.68;;;14.32;32.47
74881;BME280;63427;49.654;6.596;2024-02-21T15:37:14;99373.18;;;13.95;33.21
74881;BME280;63427;49.654;6.596;2024-02-21T15:39:40;99368.63;;;14.15;32.35
74881;BME280;63427;49.654;6.596;2024-02-21T15:42:06;99358.69;;;13.80;32.00
74881;BME280;63427;49.654;6.596;2024-02-21T15:44:31;99347.93;;;14.13;32.37
74881;BME280;63427;49.654;6.596;2024-02-21T15:46:56;99347.94;;;13.99;32.01
74881;BME280;63427;49.654;6.596;2024-02-21T15:49:22;99338.89;;;14.02;33.27
74881;BME280;63427;49.654;6.596;2024-02-21T15:51:48;99333.09;;;13.94;32.54
74881;BME280;63427;49.654;6.596;2024-02-21T15:54:12;99329.44;;;13.89;33.11
74881;BME280;63427;49.654;6.596;2024-02-21T15:56:38;99336.60;;;13.61;33.80
74881;BME280;63427;49.654;6.596;2024-02-21T15:59:03;99319.64;;;13.80;33.39
74881;BME280;63427;49.654;6.596;2024-02-21T16:01:28;99315.09;;;13.46;33.53
74881;BME280;63427;49.654;6.596;2024-02-21T16:03:54;99306.12;;;13.61;32.68
74881;BME280;63427;49.654;6.596;2024-02-21T16:06:19;99301.91;;;12.98;33.34
74881;BME280;63427;49.654;6.596;2024-02-21T16:08:45;99300.08;;;13.01;33.82
74881;BME280;63427;49.654;6.596;2024-02-21T16:11:13;99298.85;;;13.27;33.39
74881;BME280;63427;49.654;6.596;2024-02-21T16:13:36;99290.58;;;13.41;33.91
74881;BME280;63427;49.654;6.596;2024-02-21T16:16:05;99287.80;;;13.17;34.03
74881;BME280;63427;49.654;6.596;2024-02-21T16:18:26;99281.34;;;13.49;33.37
74881;BME280;63427;49.654;6.596;2024-02-21T16:20:52;99268.90;;;13.50;32.59
74881;BME280;63427;49.654;6.596;2024-02-21T16:23:18;99260.33;;;13.44;33.63
74881;BME280;63427;49.654;6.596;2024-02-21T16:40:16;99245.27;;;12.50;33.86
74881;BME280;63427;49.654;6.596;2024-02-21T16:42:41;99239.55;;;12.27;34.28
74881;BME280;63427;49.654;6.596;2024-02-21T16:45:07;99234.17;;;12.37;34.22
74881;BME280;63427;49.654;6.596;2024-02-21T16:47:32;99225.07;;;11.95;34.69
74881;BME280;63427;49.654;6.596;2024-02-21T16:49:57;99224.66;;;12.65;34.16
74881;BME280;63427;49.654;6.596;2024-02-21T16:52:23;99228.25;;;11.95;34.41
74881;BME280;63427;49.654;6.596;2024-02-21T16:54:48;99231.97;;;11.88;33.86
74881;BME280;63427;49.654;6.596;2024-02-21T20:13:40;98952.48;;;10.47;45.44
74881;BME280;63427;49.654;6.596;2024-02-21T20:16:06;98952.45;;;10.23;45.56
74881;BME280;63427;49.654;6.596;2024-02-21T20:18:31;98946.82;;;10.29;45.17
74881;BME280;63427;49.654;6.596;2024-02-21T20:20:56;98952.57;;;8.87;47.81
74881;BME280;63427;49.654;6.596;2024-02-21T20:23:22;98945.16;;;10.28;46.61
74881;BME280;63427;49.654;6.596;2024-02-21T20:25:48;98943.45;;;10.26;46.62
74881;BME280;63427;49.654;6.596;2024-02-21T20:28:14;98939.20;;;10.03;46.11
74881;BME280;63427;49.654;6.596;2024-02-21T20:30:39;98932.66;;;10.17;46.09
74881;BME280;63427;49.654;6.596;2024-02-21T20:33:05;98928.37;;;10.19;45.92
74881;BME280;63427;49.654;6.596;2024-02-21T20:35:31;98926.13;;;10.04;46.51
74881;BME280;63427;49.654;6.596;2024-02-21T20:37:55;98931.59;;;10.15;46.29
74881;BME280;63427;49.654;6.596;2024-02-21T20:40:21;98924.08;;;9.53;47.10
74881;BME280;63427;49.654;6.596;2024-02-21T20:42:47;98917.70;;;10.04;46.81
74881;BME280;63427;49.654;6.596;2024-02-21T20:45:12;98913.59;;;9.61;47.23
74881;BME280;63427;49.654;6.596;2024-02-21T20:47:38;98907.45;;;10.17;47.17
74881;BME280;63427;49.654;6.596;2024-02-21T20:50:04;98901.57;;;9.53;48.54
74881;BME280;63427;49.654;6.596;2024-02-21T20:52:29;98904.71;;;9.90;48.19
74881;BME280;63427;49.654;6.596;2024-02-21T20:54:55;98911.40;;;9.58;48.86
74881;BME280;63427;49.654;6.596;2024-02-21T20:57:20;98895.61;;;10.10;47.69
74881;BME280;63427;49.654;6.596;2024-02-21T20:59:46;98895.27;;;10.08;47.43
74881;BME280;63427;49.654;6.596;2024-02-21T21:02:11;98879.56;;;9.77;48.57
74881;BME280;63427;49.654;6.596;2024-02-21T21:04:37;98882.06;;;9.76;48.54
74881;BME280;63427;49.654;6.596;2024-02-21T21:07:03;98876.57;;;9.18;49.84
74881;BME280;63427;49.654;6.596;2024-02-21T21:09:28;98874.64;;;9.26;49.43
74881;BME280;63427;49.654;6.596;2024-02-21T21:11:53;98874.13;;;9.17;49.64
74881;BME280;63427;49.654;6.596;2024-02-21T21:14:19;98871.92;;;9.35;50.17
74881;BME280;63427;49.654;6.596;2024-02-21T21:16:45;98865.26;;;9.46;49.45
74881;BME280;63427;49.654;6.596;2024-02-21T21:24:03;98856.78;;;9.11;50.71
74881;BME280;63427;49.654;6.596;2024-02-21T21:26:28;98854.31;;;9.80;49.29
74881;BME280;63427;49.654;6.596;2024-02-21T21:28:53;98846.03;;;9.48;50.05
74881;BME280;63427;49.654;6.596;2024-02-21T21:31:19;98839.10;;;9.62;50.01
74881;BME280;63427;49.654;6.596;2024-02-21T21:33:44;98838.32;;;9.55;49.67
74881;BME280;63427;49.654;6.596;2024-02-21T21:36:09;98832.83;;;9.01;51.23
74881;BME280;63427;49.654;6.596;2024-02-21T21:38:35;98830.35;;;9.48;50.28
74881;BME280;63427;49.654;6.596;2024-02-21T21:41:01;98822.24;;;9.54;50.72
74881;BME280;63427;49.654;6.596;2024-02-21T21:43:26;98824.39;;;10.11;49.02
74881;BME280;63427;49.654;6.596;2024-02-21T21:45:52;98811.31;;;10.06;49.06
74881;BME280;63427;49.654;6.596;2024-02-21T21:48:17;98805.84;;;9.85;50.26
74881;BME280;63427;49.654;6.596;2024-02-21T21:50:43;98806.89;;;9.84;49.57
74881;BME280;63427;49.654;6.596;2024-02-21T21:53:09;98808.12;;;9.76;48.75
74881;BME280;63427;49.654;6.596;2024-02-21T21:55:34;98805.26;;;9.70;50.03
74881;BME280;63427;49.654;6.596;2024-02-21T21:58:00;98799.96;;;9.44;50.30
74881;BME280;63427;49.654;6.596;2024-02-21T22:00:25;98799.21;;;8.99;50.76
74881;BME280;63427;49.654;6.596;2024-02-21T22:02:51;98788.90;;;9.64;50.31
74881;BME280;63427;49.654;6.596;2024-02-21T22:05:17;98796.96;;;9.30;49.86
74881;BME280;63427;49.654;6.596;2024-02-21T22:07:42;98783.42;;;9.24;51.15
74881;BME280;63427;49.654;6.596;2024-02-21T22:10:08;98782.71;;;9.34;50.41
74881;BME280;63427;49.654;6.596;2024-02-21T22:12:33;98776.28;;;9.14;51.53
74881;BME280;63427;49.654;6.596;2024-02-21T22:14:59;98770.70;;;9.60;50.21
74881;BME280;63427;49.654;6.596;2024-02-21T22:17:25;98773.54;;;8.84;51.83
74881;BME280;63427;49.654;6.596;2024-02-21T22:19:50;98763.02;;;9.60;51.09
74881;BME280;63427;49.654;6.596;2024-02-21T22:22:16;98770.55;;;9.09;51.53
74881;BME280;63427;49.654;6.596;2024-02-21T22:24:42;98755.86;;;9.13;51.72
74881;BME280;63427;49.654;6.596;2024-02-21T22:27:08;98749.24;;;9.42;51.08
74881;BME280;63427;49.654;6.596;2024-02-21T22:29:33;98744.97;;;9.34;52.31
74881;BME280;63427;49.654;6.596;2024-02-21T22:31:58;98744.09;;;9.58;51.51
74881;BME280;63427;49.654;6.596;2024-02-21T22:34:24;98737.55;;;9.30;51.36
74881;BME280;63427;49.654;6.596;2024-02-21T22:36:50;98740.70;;;9.50;51.40
74881;BME280;63427;49.654;6.596;2024-02-21T22:39:15;98730.02;;;9.61;51.40
74881;BME280;63427;49.654;6.596;2024-02-21T22:44:07;98714.22;;;9.14;52.39
74881;BME280;63427;49.654;6.596;2024-02-21T22:46:32;98718.90;;;8.24;54.88
74881;BME280;63427;49.654;6.596;2024-02-21T22:48:58;98706.38;;;8.98;52.44
74881;BME280;63427;49.654;6.596;2024-02-21T22:51:23;98700.21;;;9.61;51.07
74881;BME280;63427;49.654;6.596;2024-02-21T22:53:49;98695.78;;;9.90;50.18
74881;BME280;63427;49.654;6.596;2024-02-21T22:56:15;98690.47;;;10.40;49.20
74881;BME280;63427;49.654;6.596;2024-02-21T22:58:42;98691.48;;;10.02;50.25
74881;BME280;63427;49.654;6.596;2024-02-21T23:01:12;98687.92;;;10.22;50.05
74881;BME280;63427;49.654;6.596;2024-02-21T23:03:32;98678.73;;;9.61;50.07
74881;BME280;63427;49.654;6.596;2024-02-21T23:05:57;98684.50;;;9.55;51.37
74881;BME280;63427;49.654;6.596;2024-02-21T23:08:23;98680.84;;;9.41;53.08
74881;BME280;63427;49.654;6.596;2024-02-21T23:10:48;98681.28;;;8.63;53.52
74881;BME280;63427;49.654;6.596;2024-02-21T23:13:14;98677.39;;;9.40;52.33
74881;BME280;63427;49.654;6.596;2024-02-21T23:15:40;98672.07;;;9.58;51.83
74881;BME280;63427;49.654;6.596;2024-02-21T23:18:05;98657.72;;;9.68;51.36
74881;BME280;63427;49.654;6.596;2024-02-21T23:20:31;98662.04;;;9.72;51.44
74881;BME280;63427;49.654;6.596;2024-02-21T23:22:56;98654.28;;;10.08;50.69
74881;BME280;63427;49.654;6.596;2024-02-21T23:25:23;98655.24;;;10.34;50.02
74881;BME280;63427;49.654;6.596;2024-02-21T23:27:48;98647.93;;;10.29;49.63
74881;BME280;63427;49.654;6.596;2024-02-21T23:30:13;98638.71;;;10.34;49.51
74881;BME280;63427;49.654;6.596;2024-02-21T23:32:39;98642.83;;;10.05;50.03
74881;BME280;63427;49.654;6.596;2024-02-21T23:35:06;98635.91;;;9.80;50.69
74881;BME280;63427;49.654;6.596;2024-02-21T23:37:30;98626.05;;;9.88;50.68
74881;BME280;63427;49.654;6.596;2024-02-21T23:39:56;98621.12;;;9.71;50.69
74881;BME280;63427;49.654;6.596;2024-02-21T23:42:21;98614.82;;;10.07;51.01
74881;BME280;63427;49.654;6.596;2024-02-21T23:44:47;98613.74;;;10.39;49.96
74881;BME280;63427;49.654;6.596;2024-02-21T23:47:13;98603.60;;;9.80;51.86
74881;BME280;63427;49.654;6.596;2024-02-21T23:49:52;98598.94;;;10.02;50.74
74881;BME280;63427;49.654;6.596;2024-02-21T23:52:04;98593.84;;;10.23;50.72
74881;BME280;63427;49.654;6.596;2024-02-21T23:54:30;98589.74;;;9.93;50.68
74881;BME280;63427;49.654;6.596;2024-02-21T23:56:55;98592.74;;;10.35;50.44
74881;BME280;63427;49.654;6.596;2024-02-21T23:59:21;98587.12;;;9.64;52.03
